createdAt,value
2022-11-22T00:01:12.993Z,9.60
2022-11-22T00:03:40.030Z,9.50
2022-11-22T00:06:07.041Z,9.50
2022-11-22T00:08:34.235Z,9.50
2022-11-22T00:11:01.503Z,9.40
2022-11-22T00:13:28.656Z,9.50
2022-11-22T00:16:03.304Z,9.40
2022-11-22T00:18:31.121Z,9.40
2022-11-22T00:21:05.135Z,9.50
2022-11-22T00:23:32.018Z,9.50
2022-11-22T00:25:59.001Z,9.50
2022-11-22T00:28:26.238Z,9.40
2022-11-22T00:30:53.369Z,9.40
2022-11-22T00:33:20.478Z,9.40
2022-11-22T00:35:47.742Z,9.40
2022-11-22T00:38:15.147Z,9.40
2022-11-22T00:40:44.455Z,9.30
2022-11-22T00:43:11.606Z,9.30
2022-11-22T00:45:41.522Z,9.30
2022-11-22T00:48:09.384Z,9.30
2022-11-22T00:50:36.574Z,9.30
2022-11-22T00:53:03.654Z,9.30
2022-11-22T00:55:30.791Z,9.30
2022-11-22T00:57:57.812Z,9.20
2022-11-22T01:00:24.973Z,9.30
2022-11-22T01:02:52.053Z,9.20
2022-11-22T01:05:20.447Z,9.20
2022-11-22T01:07:47.677Z,9.10
2022-11-22T01:10:15.120Z,9.10
2022-11-22T01:12:42.241Z,9.20
2022-11-22T01:15:09.836Z,9.10
2022-11-22T01:17:37.013Z,9.10
2022-11-22T01:20:04.928Z,9.10
2022-11-22T01:22:32.659Z,9.10
2022-11-22T01:24:59.558Z,9.00
2022-11-22T01:27:26.599Z,9.00
2022-11-22T01:29:54.195Z,9.00
2022-11-22T01:32:21.300Z,9.00
2022-11-22T01:34:48.286Z,9.00
2022-11-22T01:37:15.499Z,8.90
2022-11-22T01:39:43.258Z,8.80
2022-11-22T01:42:12.897Z,8.90
2022-11-22T01:44:42.031Z,8.90
2022-11-22T01:47:17.952Z,8.90
2022-11-22T01:49:48.571Z,8.90
2022-11-22T01:52:19.919Z,8.80
2022-11-22T01:55:13.118Z,8.80
2022-11-22T01:57:44.182Z,8.70
2022-11-22T02:00:14.686Z,8.70
2022-11-22T02:02:48.679Z,8.80
2022-11-22T02:05:18.618Z,8.90
2022-11-22T02:08:21.276Z,8.80
2022-11-22T02:10:49.417Z,8.80
2022-11-22T02:13:18.239Z,8.70
2022-11-22T02:15:45.512Z,8.60
2022-11-22T02:18:12.666Z,8.60
2022-11-22T02:20:40.074Z,8.60
2022-11-22T02:23:42.313Z,8.70
2022-11-22T02:26:09.345Z,8.70
2022-11-22T02:28:39.211Z,8.60
2022-11-22T02:31:06.372Z,8.60
2022-11-22T02:33:33.711Z,8.60
2022-11-22T02:36:01.327Z,8.50
2022-11-22T02:38:35.069Z,8.40
2022-11-22T02:41:06.505Z,8.50
2022-11-22T02:43:37.801Z,8.40
2022-11-22T02:46:10.683Z,8.60
2022-11-22T02:48:47.053Z,8.60
2022-11-22T02:51:20.197Z,8.50
2022-11-22T02:53:49.820Z,8.40
2022-11-22T02:56:17.640Z,8.30
2022-11-22T02:58:45.482Z,8.30
2022-11-22T03:01:14.326Z,8.20
2022-11-22T03:03:41.318Z,8.20
2022-11-22T03:06:08.491Z,8.20
2022-11-22T03:08:35.653Z,8.10
2022-11-22T03:11:03.217Z,8.20
2022-11-22T03:13:30.317Z,8.20
2022-11-22T03:15:57.225Z,8.20
2022-11-22T03:18:25.782Z,8.10
2022-11-22T03:20:52.895Z,8.10
2022-11-22T03:23:19.889Z,8.00
2022-11-22T03:25:47.126Z,7.90
2022-11-22T03:28:14.194Z,7.90
2022-11-22T03:30:42.140Z,7.90
2022-11-22T03:33:09.551Z,7.90
2022-11-22T03:35:36.492Z,7.90
2022-11-22T03:38:04.054Z,7.90
2022-11-22T03:40:31.286Z,7.80
2022-11-22T03:43:02.033Z,7.90
2022-11-22T03:45:29.627Z,7.80
2022-11-22T03:47:57.464Z,7.90
2022-11-22T03:50:25.054Z,7.80
2022-11-22T03:52:52.075Z,7.90
2022-11-22T03:55:19.183Z,8.00
2022-11-22T03:57:46.103Z,7.90
2022-11-22T04:00:13.615Z,7.90
2022-11-22T04:02:40.521Z,7.90
2022-11-22T04:05:07.996Z,7.80
2022-11-22T04:07:35.054Z,7.70
2022-11-22T04:10:02.090Z,7.70
2022-11-22T04:12:30.402Z,7.60
2022-11-22T04:15:06.830Z,7.60
2022-11-22T04:17:45.110Z,7.70
2022-11-22T04:20:36.141Z,7.70
2022-11-22T04:23:04.378Z,7.70
2022-11-22T04:25:33.422Z,7.70
2022-11-22T04:28:01.259Z,7.80
2022-11-22T04:30:48.008Z,7.90
2022-11-22T04:33:16.424Z,7.80
2022-11-22T04:35:44.456Z,7.70
2022-11-22T04:38:12.596Z,7.70
2022-11-22T04:40:40.040Z,7.70
2022-11-22T04:43:27.317Z,7.70
2022-11-22T04:45:54.549Z,7.80
2022-11-22T04:48:21.608Z,7.80
2022-11-22T04:51:07.143Z,7.90
2022-11-22T04:53:34.014Z,7.80
2022-11-22T04:56:01.106Z,7.80
2022-11-22T04:58:28.058Z,7.80
2022-11-22T05:00:55.085Z,7.70
2022-11-22T05:03:22.582Z,7.70
2022-11-22T05:05:49.532Z,7.70
2022-11-22T05:08:16.641Z,7.60
2022-11-22T05:10:58.624Z,7.60
2022-11-22T05:13:41.175Z,7.70
2022-11-22T05:16:11.020Z,7.60
2022-11-22T05:18:38.452Z,7.70
2022-11-22T05:21:15.261Z,7.70
2022-11-22T05:23:54.584Z,7.60
2022-11-22T05:26:30.418Z,7.60
2022-11-22T05:28:58.725Z,7.50
2022-11-22T05:31:27.657Z,7.50
2022-11-22T05:33:56.616Z,7.40
2022-11-22T05:36:24.354Z,7.30
2022-11-22T05:38:51.653Z,7.30
2022-11-22T05:41:19.775Z,7.30
2022-11-22T05:43:47.145Z,7.30
2022-11-22T05:46:20.981Z,7.40
2022-11-22T05:48:51.376Z,7.30
2022-11-22T05:51:20.349Z,7.30
2022-11-22T05:53:48.336Z,7.30
2022-11-22T05:56:18.113Z,7.30
2022-11-22T05:58:45.504Z,7.20
2022-11-22T06:01:15.821Z,7.30
2022-11-22T06:03:43.056Z,7.40
2022-11-22T06:06:11.336Z,7.30
2022-11-22T06:08:41.129Z,7.30
2022-11-22T06:11:27.843Z,7.40
2022-11-22T06:13:57.354Z,7.20
2022-11-22T06:16:25.439Z,7.30
2022-11-22T06:18:54.088Z,7.40
2022-11-22T06:21:23.772Z,7.40
2022-11-22T06:23:55.380Z,7.40
2022-11-22T06:26:23.603Z,7.40
2022-11-22T06:28:51.422Z,7.50
2022-11-22T06:31:26.247Z,7.50
2022-11-22T06:33:55.058Z,7.60
2022-11-22T06:36:24.504Z,7.70
2022-11-22T06:38:52.027Z,7.60
2022-11-22T06:41:21.542Z,7.60
2022-11-22T06:43:50.160Z,7.60
2022-11-22T06:46:19.146Z,7.60
2022-11-22T06:48:46.637Z,7.60
2022-11-22T06:51:19.751Z,7.50
2022-11-22T06:53:48.845Z,7.60
2022-11-22T06:56:27.151Z,7.60
2022-11-22T06:58:54.700Z,7.70
2022-11-22T07:01:27.406Z,7.80
2022-11-22T07:03:58.953Z,7.90
2022-11-22T07:06:29.163Z,7.90
2022-11-22T07:08:56.754Z,7.90
2022-11-22T07:11:26.851Z,7.90
2022-11-22T07:13:55.152Z,7.90
2022-11-22T07:16:23.099Z,8.00
2022-11-22T07:18:50.442Z,8.00
2022-11-22T07:21:19.794Z,8.10
2022-11-22T07:23:48.313Z,8.00
2022-11-22T07:26:16.523Z,8.00
2022-11-22T07:28:43.923Z,8.00
2022-11-22T07:31:13.436Z,7.90
2022-11-22T07:33:41.181Z,7.90
2022-11-22T07:36:17.269Z,8.00
2022-11-22T07:38:44.370Z,8.10
2022-11-22T07:41:11.632Z,8.10
2022-11-22T07:43:38.738Z,8.10
2022-11-22T07:46:11.551Z,8.20
2022-11-22T07:48:38.615Z,8.20
2022-11-22T07:51:08.674Z,8.30
2022-11-22T07:53:35.854Z,8.20
2022-11-22T07:56:04.862Z,8.20
2022-11-22T07:58:32.450Z,8.20
2022-11-22T08:01:11.616Z,8.40
2022-11-22T08:03:39.135Z,8.20
2022-11-22T08:06:08.964Z,8.20
2022-11-22T08:08:36.885Z,8.30
2022-11-22T08:11:05.147Z,8.30
2022-11-22T08:13:33.166Z,8.40
2022-11-22T08:16:12.205Z,8.50
2022-11-22T08:18:40.282Z,8.40
2022-11-22T08:21:11.323Z,8.50
2022-11-22T08:23:39.179Z,8.50
2022-11-22T08:26:07.727Z,8.50
2022-11-22T08:28:34.934Z,8.50
2022-11-22T08:31:06.249Z,8.50
2022-11-22T08:33:33.166Z,8.50
2022-11-22T08:36:00.671Z,8.40
2022-11-22T08:38:27.902Z,8.50
2022-11-22T08:40:56.973Z,8.40
2022-11-22T08:43:24.561Z,8.40
2022-11-22T08:45:57.018Z,8.50
2022-11-22T08:48:25.384Z,8.40
2022-11-22T08:50:54.928Z,8.60
2022-11-22T08:53:22.623Z,8.70
2022-11-22T08:55:50.002Z,8.70
2022-11-22T08:58:17.526Z,8.70
2022-11-22T09:00:45.054Z,8.60
2022-11-22T09:03:12.001Z,8.60
2022-11-22T09:08:32.731Z,8.80
2022-11-22T09:11:11.113Z,8.70
2022-11-22T09:13:38.710Z,8.60
2022-11-22T09:16:14.632Z,8.60
2022-11-22T09:18:42.235Z,8.60
2022-11-22T09:21:18.232Z,8.70
2022-11-22T09:23:47.740Z,8.70
2022-11-22T09:26:20.310Z,8.90
2022-11-22T09:28:47.915Z,8.90
2022-11-22T09:31:18.003Z,9.00
2022-11-22T09:33:47.994Z,9.10
2022-11-22T09:36:20.535Z,9.10
2022-11-22T09:38:47.883Z,9.20
2022-11-22T09:42:00.664Z,9.20
2022-11-22T09:44:51.062Z,9.30
2022-11-22T09:47:20.766Z,9.40
2022-11-22T09:50:10.430Z,9.50
2022-11-22T09:52:46.396Z,9.40
2022-11-22T09:55:25.036Z,9.50
2022-11-22T09:58:13.383Z,9.50
2022-11-22T10:00:44.392Z,9.50
2022-11-22T10:03:31.398Z,9.50
2022-11-22T10:06:06.805Z,9.60
2022-11-22T10:09:48.606Z,9.70
2022-11-22T10:12:55.340Z,9.80
2022-11-22T10:15:41.393Z,9.90
2022-11-22T10:18:24.033Z,9.90
2022-11-22T10:20:51.097Z,9.80
2022-11-22T10:23:22.766Z,9.80
2022-11-22T10:26:04.659Z,9.80
2022-11-22T10:28:36.090Z,9.90
2022-11-22T10:31:15.052Z,9.90
2022-11-22T10:34:03.391Z,9.90
2022-11-22T10:36:57.061Z,10.00
2022-11-22T10:39:45.344Z,10.00
2022-11-22T10:42:31.148Z,10.00
2022-11-22T10:45:15.283Z,9.90
2022-11-22T10:47:51.268Z,9.90
2022-11-22T10:50:34.567Z,9.90
2022-11-22T10:53:25.772Z,9.90
2022-11-22T10:56:14.433Z,10.00
2022-11-22T10:59:28.700Z,9.90
2022-11-22T11:02:33.752Z,10.00
2022-11-22T11:05:02.621Z,9.80
2022-11-22T11:07:29.849Z,9.90
2022-11-22T11:10:11.528Z,9.80
2022-11-22T11:12:51.559Z,9.80
2022-11-22T11:15:18.615Z,9.90
2022-11-22T11:17:49.347Z,9.90
2022-11-22T11:20:29.059Z,10.00
2022-11-22T11:23:14.081Z,10.10
2022-11-22T11:25:44.710Z,10.10
2022-11-22T11:28:20.771Z,10.30
2022-11-22T11:31:00.712Z,10.50
2022-11-22T11:33:29.382Z,10.60
2022-11-22T11:36:07.659Z,10.80
2022-11-22T11:38:52.240Z,10.90
2022-11-22T11:41:31.581Z,11.00
2022-11-22T11:44:01.227Z,11.10
2022-11-22T11:46:30.354Z,11.10
2022-11-22T11:49:10.269Z,11.20
2022-11-22T11:51:43.307Z,11.30
2022-11-22T11:54:27.653Z,11.30
2022-11-22T11:57:00.860Z,11.30
2022-11-22T11:59:37.035Z,11.40
2022-11-22T12:02:35.815Z,11.40
2022-11-22T12:05:06.823Z,11.30
2022-11-22T12:07:37.883Z,11.30
2022-11-22T12:10:30.014Z,11.20
2022-11-22T12:13:18.100Z,11.20
2022-11-22T12:16:09.364Z,11.20
2022-11-22T12:18:53.533Z,11.20
2022-11-22T12:21:30.172Z,11.30
2022-11-22T12:24:52.356Z,11.30
2022-11-22T12:27:20.799Z,11.30
2022-11-22T12:29:48.417Z,11.40
2022-11-22T12:32:35.308Z,11.40
2022-11-22T12:35:12.825Z,11.30
2022-11-22T12:37:45.437Z,11.10
2022-11-22T12:40:17.907Z,10.80
2022-11-22T12:42:50.432Z,10.80
2022-11-22T12:45:40.713Z,10.80
2022-11-22T12:48:17.503Z,10.70
2022-11-22T12:51:01.283Z,10.80
2022-11-22T12:53:37.486Z,10.70
2022-11-22T12:56:10.323Z,10.60
2022-11-22T12:58:43.943Z,10.60
2022-11-22T13:01:26.361Z,10.60
2022-11-22T13:03:53.449Z,10.60
2022-11-22T13:06:24.316Z,10.60
2022-11-22T13:09:01.988Z,10.50
2022-11-22T13:11:42.877Z,10.50
2022-11-22T13:14:21.019Z,10.50
2022-11-22T13:16:51.196Z,10.40
2022-11-22T13:19:23.107Z,10.40
2022-11-22T13:22:01.695Z,10.40
2022-11-22T13:24:37.593Z,10.40
2022-11-22T13:27:19.713Z,10.30
2022-11-22T13:29:47.776Z,10.40
2022-11-22T13:32:20.707Z,10.40
2022-11-22T13:35:00.015Z,10.40
2022-11-22T13:37:29.049Z,10.40
2022-11-22T13:39:56.374Z,10.30
2022-11-22T13:42:28.462Z,10.30
2022-11-22T13:44:55.383Z,10.40
2022-11-22T13:47:40.649Z,10.50
2022-11-22T13:50:42.102Z,10.50
2022-11-22T13:53:31.731Z,10.40
2022-11-22T13:56:15.339Z,10.30
2022-11-22T13:58:51.112Z,10.30
2022-11-22T14:01:36.701Z,10.20
2022-11-22T14:04:26.865Z,10.20
2022-11-22T14:07:11.588Z,10.10
2022-11-22T14:09:50.982Z,10.10
2022-11-22T14:12:45.420Z,10.10
2022-11-22T14:15:48.179Z,10.00
2022-11-22T14:18:21.280Z,10.10
2022-11-22T14:21:09.104Z,10.00
2022-11-22T14:23:39.103Z,10.00
2022-11-22T14:26:32.631Z,10.00
2022-11-22T14:29:16.609Z,10.00
2022-11-22T14:31:54.422Z,10.10
2022-11-22T14:34:27.211Z,10.10
2022-11-22T14:37:13.006Z,10.20
2022-11-22T14:39:53.733Z,10.20
2022-11-22T14:42:46.366Z,10.30
2022-11-22T14:45:23.111Z,10.30
2022-11-22T14:47:53.339Z,10.30
2022-11-22T14:50:38.433Z,10.30
2022-11-22T14:53:25.022Z,10.30
2022-11-22T14:55:58.437Z,10.40
2022-11-22T14:58:29.696Z,10.40
2022-11-22T15:01:12.118Z,10.40
2022-11-22T15:03:53.181Z,10.40
2022-11-22T15:09:17.240Z,10.50
2022-11-22T15:10:05.636Z,10.60
2022-11-22T15:13:10.203Z,10.70
2022-11-22T15:59:44.792Z,10.80
2022-11-22T16:02:25.220Z,10.80
2022-11-22T16:06:09.034Z,10.80
2022-11-22T16:07:49.930Z,10.80
2022-11-22T16:10:27.787Z,10.70
2022-11-22T16:12:54.822Z,10.70
2022-11-22T16:15:36.556Z,10.60
2022-11-22T16:18:13.078Z,10.70
2022-11-22T16:20:41.501Z,10.60
2022-11-22T16:23:14.561Z,10.60
2022-11-22T16:25:49.681Z,10.60
2022-11-22T16:28:45.821Z,10.60
2022-11-22T16:31:26.094Z,10.50
2022-11-22T16:33:57.115Z,10.60
2022-11-22T16:36:28.147Z,10.70
2022-11-22T16:38:55.255Z,10.70
2022-11-22T16:41:25.124Z,10.80
2022-11-22T16:43:59.606Z,10.90
2022-11-22T16:46:26.747Z,10.90
2022-11-22T16:48:56.629Z,10.90
2022-11-22T16:51:28.692Z,10.90
2022-11-22T16:54:08.399Z,10.90
2022-11-22T16:56:35.410Z,10.80
2022-11-22T16:59:06.383Z,10.70
2022-11-22T17:01:37.229Z,10.80
2022-11-22T17:04:05.094Z,10.80
2022-11-22T17:06:33.404Z,10.90
2022-11-22T17:09:00.912Z,10.90
2022-11-22T17:11:30.945Z,10.90
2022-11-22T17:13:59.288Z,11.00
2022-11-22T17:16:26.773Z,11.00
2022-11-22T17:18:54.089Z,11.10
2022-11-22T17:21:32.977Z,11.00
2022-11-22T17:24:07.109Z,11.10
2022-11-22T17:26:39.529Z,11.10
2022-11-22T17:29:11.109Z,11.10
2022-11-22T17:31:48.097Z,11.10
2022-11-22T17:34:15.300Z,11.20
2022-11-22T17:36:42.470Z,11.30
2022-11-22T17:39:12.296Z,11.30
2022-11-22T17:41:39.815Z,11.30
2022-11-22T17:44:07.320Z,11.30
2022-11-22T17:46:42.951Z,11.30
2022-11-22T17:49:15.659Z,11.30
2022-11-22T17:51:43.868Z,11.30
2022-11-22T17:54:10.922Z,11.40
2022-11-22T17:56:38.100Z,11.60
2022-11-22T17:59:05.219Z,11.40
2022-11-22T18:01:32.329Z,11.40
2022-11-22T18:03:59.354Z,11.30
2022-11-22T18:06:26.972Z,11.40
2022-11-22T18:08:53.875Z,11.40
2022-11-22T18:11:21.023Z,11.40
2022-11-22T18:13:48.155Z,11.40
2022-11-22T18:16:17.471Z,11.40
2022-11-22T18:19:02.040Z,11.50
2022-11-22T18:21:31.006Z,11.40
2022-11-22T18:24:00.299Z,11.30
2022-11-22T18:26:43.479Z,11.30
2022-11-22T18:32:00.904Z,11.30
2022-11-22T18:34:28.935Z,11.20
2022-11-22T18:37:04.834Z,11.20
2022-11-22T18:39:38.250Z,11.20
2022-11-22T18:42:23.501Z,11.30
2022-11-22T18:44:50.530Z,11.20
2022-11-22T18:47:17.573Z,11.20
2022-11-22T18:49:44.465Z,11.30
2022-11-22T18:52:14.845Z,11.30
2022-11-22T18:54:44.179Z,11.30
2022-11-22T18:57:11.138Z,11.30
2022-11-22T18:59:38.233Z,11.30
2022-11-22T19:02:19.573Z,11.40
2022-11-22T19:04:47.558Z,11.40
2022-11-22T19:07:41.183Z,11.40
2022-11-22T19:10:09.474Z,11.30
2022-11-22T19:12:36.595Z,11.30
2022-11-22T19:15:03.763Z,11.10
2022-11-22T19:17:30.797Z,11.00
2022-11-22T19:19:59.143Z,11.00
2022-11-22T19:22:26.886Z,11.00
2022-11-22T19:24:54.326Z,11.10
2022-11-22T19:27:21.526Z,10.90
2022-11-22T19:29:48.668Z,11.10
2022-11-22T19:32:16.687Z,11.10
2022-11-22T19:34:43.763Z,11.10
2022-11-22T19:37:11.748Z,11.10
2022-11-22T19:39:38.727Z,11.10
2022-11-22T19:42:20.869Z,11.00
2022-11-22T19:44:47.921Z,11.00
2022-11-22T19:47:14.886Z,11.00
2022-11-22T19:49:41.833Z,11.00
2022-11-22T19:52:08.954Z,11.00
2022-11-22T19:54:36.114Z,11.00
2022-11-22T19:57:03.045Z,11.00
2022-11-22T19:59:30.390Z,11.00
2022-11-22T20:01:57.638Z,10.90
2022-11-22T20:04:25.101Z,10.90
2022-11-22T20:06:52.564Z,11.10
2022-11-22T20:09:19.816Z,11.10
2022-11-22T20:11:47.003Z,11.00
2022-11-22T20:14:14.390Z,11.00
2022-11-22T20:16:41.823Z,11.00
2022-11-22T20:19:10.526Z,11.10
2022-11-22T20:21:39.652Z,11.10
2022-11-22T20:24:07.447Z,11.10
2022-11-22T20:26:35.200Z,11.00
2022-11-22T20:29:05.471Z,11.00
2022-11-22T20:31:35.105Z,11.00
2022-11-22T20:34:03.456Z,10.90
2022-11-22T20:36:32.769Z,11.00
2022-11-22T20:39:02.918Z,10.90
2022-11-22T20:41:32.815Z,10.90
2022-11-22T20:44:00.031Z,10.80
2022-11-22T20:46:28.606Z,10.70
2022-11-22T20:48:58.111Z,10.80
2022-11-22T20:51:27.763Z,10.70
2022-11-22T20:53:56.318Z,10.80
2022-11-22T20:56:24.112Z,10.60
2022-11-22T20:59:05.808Z,10.60
2022-11-22T21:01:43.825Z,10.60
2022-11-22T21:04:10.788Z,10.60
2022-11-22T21:06:38.356Z,10.60
2022-11-22T21:09:06.067Z,10.60
2022-11-22T21:11:33.250Z,10.60
2022-11-22T21:14:00.384Z,10.60
2022-11-22T21:16:32.642Z,10.50
2022-11-22T21:19:05.139Z,10.40
2022-11-22T21:21:34.902Z,10.60
2022-11-22T21:24:05.900Z,10.60
2022-11-22T21:26:34.210Z,10.70
2022-11-22T21:29:03.308Z,10.70
2022-11-22T21:31:30.384Z,10.70
2022-11-22T21:33:57.566Z,10.70
2022-11-22T21:36:25.091Z,10.70
2022-11-22T21:38:52.106Z,10.70
2022-11-22T21:41:39.417Z,10.70
2022-11-22T21:44:07.396Z,10.70
2022-11-22T21:46:34.407Z,10.70
2022-11-22T21:49:01.371Z,10.70
2022-11-22T21:51:28.493Z,10.70
2022-11-22T21:53:59.519Z,10.70
2022-11-22T21:56:27.300Z,10.70
2022-11-22T21:58:54.333Z,10.70
2022-11-22T22:01:21.672Z,10.70
2022-11-22T22:03:48.753Z,10.70
2022-11-22T22:06:15.762Z,10.70
2022-11-22T22:08:42.745Z,10.50
2022-11-22T22:11:09.697Z,10.70
2022-11-22T22:13:36.747Z,10.60
2022-11-22T22:16:12.820Z,10.60
2022-11-22T22:18:39.934Z,10.70
2022-11-22T22:21:08.881Z,10.70
2022-11-22T22:23:37.736Z,10.80
2022-11-22T22:26:07.763Z,10.80
2022-11-22T22:28:36.985Z,10.80
2022-11-22T22:31:11.033Z,10.80
2022-11-22T22:36:31.772Z,10.80
2022-11-22T22:38:58.917Z,10.90
2022-11-22T22:41:25.944Z,11.00
2022-11-22T22:43:53.127Z,11.00
2022-11-22T22:46:22.576Z,10.90
2022-11-22T22:48:51.761Z,11.20
2022-11-22T22:51:20.254Z,10.90
2022-11-22T22:53:47.814Z,11.00
2022-11-22T22:56:17.460Z,11.00
2022-11-22T22:58:46.558Z,11.00
2022-11-22T23:01:17.845Z,11.00
2022-11-22T23:03:50.123Z,11.00
2022-11-22T23:06:17.636Z,11.00
2022-11-22T23:08:47.130Z,11.00
2022-11-22T23:11:15.064Z,11.00
2022-11-22T23:13:43.689Z,11.00
2022-11-22T23:16:13.822Z,10.90
2022-11-22T23:18:44.783Z,11.00
2022-11-22T23:21:14.533Z,11.10
2022-11-22T23:23:41.675Z,11.00
2022-11-22T23:26:11.441Z,11.00
2022-11-22T23:28:38.753Z,11.00
2022-11-22T23:31:07.238Z,11.10
2022-11-22T23:33:35.023Z,11.00
2022-11-22T23:36:06.392Z,11.00
2022-11-22T23:38:33.714Z,11.00
2022-11-22T23:41:00.718Z,11.00
2022-11-22T23:43:29.045Z,11.00
2022-11-22T23:45:56.357Z,10.90
2022-11-22T23:48:23.327Z,10.90
2022-11-22T23:50:51.582Z,10.90
2022-11-22T23:53:20.146Z,10.90
2022-11-22T23:55:47.223Z,10.90
2022-11-22T23:58:14.210Z,10.90
